Airfield :
LOGIN :

Register | Disclaimer

   EN    FR    IT 

 










Legend :    VFR   Marginal VFR   IFR   Intensive IFR   Very Intensive IFR
Visi :
Ceiling :
>= 8 km
>= 3000ft
5 to 8 km
1000 to 3000 ft
1500m to 5 km
500 to 1000 ft
800 to 1500m
200 to 500 ft
< 800m
< 200 ft
Symbols :   Thunderstorms  Fog  Heavy snow  Heavy precipitations  Wind > 20 kt
SIGMETs :     Misc.  Thunderstorms  Icing  Turbulence  Mountain Waves  Volcanic Ashes






- Airport Elevation : 313 ft
- IATA code : LEH


LFOH - Le Havre Octeville

CURRENT METAR :
  • 211500Z AUTO 03020KT 9999 BKN025/// BKN031/// ///TCU 10/05 Q1027 TEMPO 03015G25KT 4000 SHRA

EXPIRED METARs :
  • 211430Z AUTO 02019KT 9999 BKN023 OVC030 10/05 Q1027 TEMPO 03015G25KT 4000 SHRA BKN025TCU
  • 211400Z AUTO 01019KT 9999 BKN025/// BKN030/// BKN036/// ///TCU 09/04 Q1027 TEMPO 03015G25KT 4000 SHRA
  • 211330Z AUTO 02017KT 9999 -DZ BKN026 BKN033 BKN049 09/06 Q1027 TEMPO 03015G25KT 4000 SHRA BKN025TCU
  • 211300Z AUTO 01016KT 9999 OVC033 10/04 Q1027 TEMPO 03015G25KT 4000 SHRA BKN025TCU
  • 211230Z AUTO 01016KT 9999 FEW027 BKN033 BKN039 09/03 Q1027 TEMPO 03015G25KT 4000 SHRA BKN025TCU
  • 211200Z AUTO 02017KT 9999 BKN029 BKN036 09/03 Q1027 TEMPO 33015G25KT 3000 SHRA BKN013 BKN020TCU
  • 211130Z AUTO 03017KT 9999 BKN033 BKN040 09/02 Q1027 TEMPO 4000 SHRA SCT017 BKN025TCU BECMG 01015G28KT
  • 211100Z AUTO 02017KT 9999 BKN031 BKN038 BKN044 09/02 Q1027 BECMG 01015G28KT
  • 211030Z AUTO 03017KT 9999 BKN031 BKN044 09/03 Q1027 BECMG 01015G28KT
  • 211000Z AUTO 03016KT 9999 BKN034 BKN042 BKN050 08/01 Q1027 BECMG 01015G28KT

TAF TAF LFOH
Valid from the 21 at 12:00 until the 22 at 12:00 UTC


211100Z 2112/2212 03010KT 9999 SCT020
TEMPO 2112/2114 33015G25KT 3000 SHRA BKN013 BKN020TCU
PROB30
TEMPO 2114/2120 03015G25KT 4000 SHRA BKN025TCU
PROB30
TEMPO 2200/2206 4000 SHRA BKN014 BKN020TCU
ATIS : +33 2 35 54 64 93



MET'MAP, your aeronautical weather chart ! - Copyright ORBIFLY December 2007 - Disclaimer

ORBIFLY MET'MAP TEAM :

Programming & Development : Alexandra Zaïnal
Original concept : Baudouin d'Aumeries
Technical & hardware support : Manuel Goepfert
Assistance : Marc-Olivier Méhu




SOURCES & CREDITS :

   NOAA